Time;durP1;ratioP1;P1;durP2;ratioP2;P2;SDS_P1;SDS_P2;PMS_P1;PMS_P2;Temp;Humidity;BMP_temperature;BMP_pressure;BME280_temperature;BME280_humidity;BME280_pressure;Samples;Min_cycle;Max_cycle;Signal;HPM_P1;HPM_P2
2022/04/24 00:00:32;;;;;;;;;;;16.80;59.10;;;;;;2045954;28;19904;-66
2022/04/24 00:01:32;;;;;;;;;;;16.80;59.10;;;;;;2046080;28;19910;-68
2022/04/24 00:02:30;;;;;;;;;;;16.80;59.20;;;;;;2046538;28;19926;-67
2022/04/24 00:03:29;;;;;;;;;;;16.80;59.10;;;;;;2055228;28;19907;-65
2022/04/24 00:04:27;;;;;;;;;;;16.90;59.20;;;;;;2055017;28;19970;-67
2022/04/24 00:05:26;;;;;;;;;;;16.80;59.00;;;;;;2055330;28;19895;-64
2022/04/24 00:06:24;;;;;;;;;;;16.80;59.00;;;;;;2053672;28;19966;-67
2022/04/24 00:07:22;;;;;;;;;;;16.80;59.10;;;;;;2045439;28;19904;-65
2022/04/24 00:08:21;;;;;;;;;;;16.80;59.10;;;;;;2045405;28;19937;-66
2022/04/24 00:09:20;;;;;;;;;;;16.80;59.10;;;;;;2045408;28;20043;-66
2022/04/24 00:10:18;;;;;;;;;;;16.80;59.10;;;;;;2044710;28;19904;-66
2022/04/24 00:11:17;;;;;;;;;;;16.80;59.10;;;;;;2044944;28;19914;-67
2022/04/24 00:12:16;;;;;;;;;;;16.80;59.10;;;;;;2045370;28;19943;-67
2022/04/24 00:13:15;;;;;;;;;;;16.80;59.10;;;;;;2045466;28;19903;-68
2022/04/24 00:14:14;;;;;;;;;;;16.80;59.10;;;;;;2045461;28;19950;-67
2022/04/24 00:15:13;;;;;;;;;;;16.80;59.20;;;;;;2045623;28;19903;-66
2022/04/24 00:16:11;;;;;;;;;;;16.80;59.10;;;;;;2044651;28;20296;-67
2022/04/24 00:17:10;;;;;;;;;;;16.80;59.10;;;;;;2044661;28;19903;-66
2022/04/24 00:18:08;;;;;;;;;;;16.80;59.10;;;;;;2045191;28;20384;-66
2022/04/24 00:19:07;;;;;;;;;;;16.80;59.80;;;;;;2045521;28;20248;-66
2022/04/24 00:20:05;;;;;;;;;;;16.80;59.10;;;;;;2045357;28;19904;-66
2022/04/24 00:21:05;;;;;;;;;;;16.80;59.20;;;;;;2045297;28;19979;-66
2022/04/24 00:22:03;;;;;;;;;;;16.80;59.20;;;;;;2045253;28;19911;-66
2022/04/24 00:23:02;;;;;;;;;;;16.80;59.20;;;;;;2045448;28;19942;-66
2022/04/24 00:24:00;;;;;;;;;;;16.70;59.00;;;;;;2045456;28;19904;-65
2022/04/24 00:24:58;;;;;;;;;;;16.80;59.20;;;;;;2045248;28;19973;-66
2022/04/24 00:25:57;;;;;;;;;;;16.80;59.10;;;;;;2046685;27;19991;-66
2022/04/24 00:26:55;;;;;;;;;;;16.80;59.10;;;;;;2052700;28;19904;-66
2022/04/24 00:27:54;;;;;;;;;;;16.70;59.10;;;;;;2053592;28;19915;-66
2022/04/24 00:28:53;;;;;;;;;;;16.70;59.00;;;;;;2053319;28;19898;-66
2022/04/24 00:29:53;;;;;;;;;;;16.70;59.10;;;;;;2050733;28;19911;-67
2022/04/24 00:30:52;;;;;;;;;;;16.70;59.20;;;;;;2047222;28;20312;-66
2022/04/24 00:31:51;;;;;;;;;;;16.70;59.10;;;;;;2046533;28;19949;-67
2022/04/24 00:32:50;;;;;;;;;;;16.80;59.70;;;;;;2046124;28;20366;-67
2022/04/24 00:33:48;;;;;;;;;;;16.70;59.30;;;;;;2045836;28;19922;-65
2022/04/24 00:34:46;;;;;;;;;;;16.70;59.50;;;;;;2045755;28;19942;-66
2022/04/24 00:35:45;;;;;;;;;;;16.80;59.50;;;;;;2045813;28;20284;-66
2022/04/24 00:36:46;;;;;;;;;;;16.80;59.40;;;;;;2045838;28;19923;-65
2022/04/24 00:37:44;;;;;;;;;;;16.70;59.50;;;;;;2045616;28;19964;-67
2022/04/24 00:38:43;;;;;;;;;;;16.80;59.40;;;;;;2045554;28;20049;-68
2022/04/24 00:39:41;;;;;;;;;;;16.70;59.90;;;;;;2045469;28;19951;-66
2022/04/24 00:40:40;;;;;;;;;;;16.70;59.20;;;;;;2045532;28;19911;-67
2022/04/24 00:41:45;;;;;;;;;;;16.70;59.30;;;;;;2045385;28;19948;-65
2022/04/24 00:42:44;;;;;;;;;;;16.80;59.90;;;;;;2045478;28;20317;-66
2022/04/24 00:43:49;;;;;;;;;;;16.70;59.40;;;;;;2045451;28;19904;-66
2022/04/24 00:44:47;;;;;;;;;;;16.70;59.60;;;;;;2045272;28;20373;-66
2022/04/24 00:45:47;;;;;;;;;;;16.70;59.40;;;;;;2045278;28;19926;-67
2022/04/24 00:46:56;;;;;;;;;;;16.70;59.40;;;;;;2045345;28;20343;-67
2022/04/24 00:47:56;;;;;;;;;;;16.70;59.90;;;;;;2045172;28;20331;-67
2022/04/24 00:48:55;;;;;;;;;;;16.70;59.50;;;;;;2045155;28;19903;-68
2022/04/24 00:49:54;;;;;;;;;;;16.70;59.50;;;;;;2045190;28;19904;-66
2022/04/24 00:50:52;;;;;;;;;;;16.70;59.40;;;;;;2045149;28;19907;-66
2022/04/24 00:51:51;;;;;;;;;;;16.70;59.40;;;;;;2045285;28;19903;-66
2022/04/24 00:52:49;;;;;;;;;;;16.70;59.70;;;;;;2045217;28;19910;-66
2022/04/24 00:53:48;;;;;;;;;;;16.70;59.30;;;;;;2045189;28;20350;-66
2022/04/24 00:54:46;;;;;;;;;;;16.70;59.30;;;;;;2045148;28;19908;-65
2022/04/24 00:55:45;;;;;;;;;;;16.70;59.40;;;;;;2045097;28;19910;-66
2022/04/24 00:56:44;;;;;;;;;;;16.70;59.40;;;;;;2045098;28;19920;-67
2022/04/24 00:57:42;;;;;;;;;;;16.70;59.50;;;;;;2045153;28;19958;-67
2022/04/24 00:58:41;;;;;;;;;;;16.70;59.70;;;;;;2045167;28;19911;-65
2022/04/24 00:59:39;;;;;;;;;;;16.70;59.50;;;;;;2044991;28;19904;-65
2022/04/24 01:00:38;;;;;;;;;;;16.70;59.50;;;;;;2045108;28;19903;-67
2022/04/24 01:01:37;;;;;;;;;;;16.70;59.50;;;;;;2045167;28;19908;-65
2022/04/24 01:02:37;;;;;;;;;;;16.70;59.50;;;;;;2044498;28;19907;-66
2022/04/24 01:03:37;;;;;;;;;;;16.70;59.50;;;;;;2044632;28;20405;-65
2022/04/24 01:04:36;;;;;;;;;;;16.70;59.60;;;;;;2044620;28;20093;-66
2022/04/24 01:05:35;;;;;;;;;;;16.70;59.70;;;;;;2044346;28;19912;-67
2022/04/24 01:06:35;;;;;;;;;;;16.70;59.40;;;;;;2044675;28;19904;-67
2022/04/24 01:07:33;;;;;;;;;;;16.70;59.50;;;;;;2045031;28;20365;-67
2022/04/24 01:08:34;;;;;;;;;;;16.70;59.30;;;;;;2045094;28;20351;-67
2022/04/24 01:09:33;;;;;;;;;;;16.70;59.50;;;;;;2045040;28;19904;-66
2022/04/24 01:10:38;;;;;;;;;;;16.70;59.70;;;;;;2044513;28;19911;-65
2022/04/24 01:11:37;;;;;;;;;;;16.70;59.90;;;;;;2044520;28;19907;-66
2022/04/24 01:12:37;;;;;;;;;;;16.60;59.50;;;;;;2044982;28;20011;-66
2022/04/24 01:13:36;;;;;;;;;;;16.60;59.50;;;;;;2045155;28;19950;-66
2022/04/24 01:14:34;;;;;;;;;;;16.70;59.40;;;;;;2045107;28;20298;-66
2022/04/24 01:15:33;;;;;;;;;;;16.60;59.40;;;;;;2045108;28;19904;-65
2022/04/24 01:16:32;;;;;;;;;;;16.70;59.50;;;;;;2044922;28;20011;-66
2022/04/24 01:17:30;;;;;;;;;;;16.60;59.40;;;;;;2045069;28;19907;-67
2022/04/24 01:18:30;;;;;;;;;;;16.60;59.50;;;;;;2044980;28;19943;-65
2022/04/24 01:19:29;;;;;;;;;;;16.70;59.70;;;;;;2045018;28;19910;-65
2022/04/24 01:20:27;;;;;;;;;;;16.60;59.60;;;;;;2044994;28;20385;-65
2022/04/24 01:21:26;;;;;;;;;;;16.70;59.50;;;;;;2045026;28;19904;-65
2022/04/24 01:22:25;;;;;;;;;;;16.60;59.40;;;;;;2045052;28;19926;-66
2022/04/24 01:23:23;;;;;;;;;;;16.70;59.50;;;;;;2044944;28;19903;-67
2022/04/24 01:24:23;;;;;;;;;;;16.60;59.30;;;;;;2045172;28;19943;-66
2022/04/24 01:25:21;;;;;;;;;;;16.60;59.50;;;;;;2044251;28;20018;-66
2022/04/24 01:26:20;;;;;;;;;;;16.60;59.40;;;;;;2036065;28;19912;-66
2022/04/24 01:27:18;;;;;;;;;;;16.60;59.70;;;;;;2043786;28;19998;-66
2022/04/24 01:28:16;;;;;;;;;;;16.60;59.40;;;;;;2044933;28;19907;-66
2022/04/24 01:29:16;;;;;;;;;;;16.60;59.30;;;;;;2045047;28;19904;-67
2022/04/24 01:30:14;;;;;;;;;;;16.60;59.50;;;;;;2045063;28;19942;-65
2022/04/24 01:31:13;;;;;;;;;;;16.60;59.30;;;;;;2044990;28;19904;-65
2022/04/24 01:32:11;;;;;;;;;;;16.60;59.40;;;;;;2044977;28;20278;-66
2022/04/24 01:33:10;;;;;;;;;;;16.60;59.30;;;;;;2045033;28;19954;-65
2022/04/24 01:34:08;;;;;;;;;;;16.60;59.30;;;;;;2045076;28;19910;-65
2022/04/24 01:35:11;;;;;;;;;;;16.60;59.30;;;;;;2045072;28;20048;-66
2022/04/24 01:36:10;;;;;;;;;;;16.60;59.60;;;;;;2044202;28;19998;-66
2022/04/24 01:37:08;;;;;;;;;;;16.60;59.40;;;;;;2044282;28;19911;-66
2022/04/24 01:38:06;;;;;;;;;;;16.60;59.60;;;;;;2044948;28;20397;-66
2022/04/24 01:39:05;;;;;;;;;;;16.60;59.40;;;;;;2045180;28;20062;-66
2022/04/24 01:40:04;;;;;;;;;;;16.60;59.40;;;;;;2044896;28;19911;-66
2022/04/24 01:41:02;;;;;;;;;;;16.60;59.80;;;;;;2044203;28;19908;-66
2022/04/24 01:42:00;;;;;;;;;;;16.60;59.40;;;;;;2044303;28;19904;-66
2022/04/24 01:42:59;;;;;;;;;;;16.60;59.40;;;;;;2044888;28;20350;-66
2022/04/24 01:43:58;;;;;;;;;;;16.60;59.40;;;;;;2044993;28;19904;-65
2022/04/24 01:44:56;;;;;;;;;;;16.60;59.50;;;;;;2044821;28;19943;-65
2022/04/24 01:45:54;;;;;;;;;;;16.60;59.30;;;;;;2044870;28;20373;-67
2022/04/24 01:46:53;;;;;;;;;;;16.60;59.40;;;;;;2044863;28;19911;-66
2022/04/24 01:47:52;;;;;;;;;;;16.60;59.40;;;;;;2046343;28;19911;-66
2022/04/24 01:48:52;;;;;;;;;;;16.60;59.40;;;;;;2046534;28;19904;-66
2022/04/24 01:49:50;;;;;;;;;;;16.60;59.50;;;;;;2046521;28;19910;-67
2022/04/24 01:50:51;;;;;;;;;;;16.60;59.40;;;;;;2046522;28;19994;-65
2022/04/24 01:51:50;;;;;;;;;;;16.60;59.50;;;;;;2046508;27;20044;-66
2022/04/24 01:52:48;;;;;;;;;;;16.60;59.40;;;;;;2046554;28;19960;-65
2022/04/24 01:53:47;;;;;;;;;;;16.60;59.40;;;;;;2046502;28;19907;-65
2022/04/24 01:54:45;;;;;;;;;;;16.60;59.40;;;;;;2045847;28;19903;-66
2022/04/24 01:55:43;;;;;;;;;;;16.60;60.00;;;;;;2046037;28;19904;-65
2022/04/24 01:56:42;;;;;;;;;;;16.60;59.50;;;;;;2046360;28;20317;-66
2022/04/24 01:57:40;;;;;;;;;;;16.60;59.50;;;;;;2046458;28;19903;-66
2022/04/24 01:58:39;;;;;;;;;;;16.60;59.50;;;;;;2045787;28;19903;-66
2022/04/24 01:59:37;;;;;;;;;;;16.50;59.50;;;;;;2046023;28;19911;-66
2022/04/24 02:00:36;;;;;;;;;;;16.60;59.60;;;;;;2046570;28;19940;-65
2022/04/24 02:01:36;;;;;;;;;;;16.60;59.50;;;;;;2046574;28;19903;-66
2022/04/24 02:02:34;;;;;;;;;;;16.60;59.20;;;;;;2046663;28;20373;-66
2022/04/24 02:03:34;;;;;;;;;;;16.60;59.20;;;;;;2046462;28;19904;-66
2022/04/24 02:04:32;;;;;;;;;;;16.60;59.50;;;;;;2046124;27;19904;-66
2022/04/24 02:05:30;;;;;;;;;;;16.60;59.10;;;;;;2046530;28;19994;-66
2022/04/24 02:06:29;;;;;;;;;;;16.60;59.30;;;;;;2046364;28;20268;-66
2022/04/24 02:07:28;;;;;;;;;;;16.60;59.30;;;;;;2046523;28;19911;-66
2022/04/24 02:08:27;;;;;;;;;;;16.60;59.30;;;;;;2046525;28;20328;-66
2022/04/24 02:09:25;;;;;;;;;;;16.50;59.50;;;;;;2046468;28;19904;-66
2022/04/24 02:10:24;;;;;;;;;;;16.60;59.50;;;;;;2046459;27;20270;-66
2022/04/24 02:11:22;;;;;;;;;;;16.60;60.00;;;;;;2045689;28;19904;-66
2022/04/24 02:12:21;;;;;;;;;;;16.50;59.90;;;;;;2045923;28;19904;-66
2022/04/24 02:13:19;;;;;;;;;;;16.60;60.10;;;;;;2046193;28;19951;-66
2022/04/24 02:14:17;;;;;;;;;;;16.60;60.10;;;;;;2046431;28;19904;-68
2022/04/24 02:15:17;;;;;;;;;;;16.60;60.30;;;;;;2046552;28;19910;-65
2022/04/24 02:16:15;;;;;;;;;;;16.60;60.60;;;;;;2046373;28;19907;-67
2022/04/24 02:17:14;;;;;;;;;;;16.60;60.20;;;;;;2046393;28;19904;-65
2022/04/24 02:18:12;;;;;;;;;;;16.50;60.00;;;;;;2046309;28;20357;-66
2022/04/24 02:19:11;;;;;;;;;;;16.50;60.10;;;;;;2046284;28;19910;-66
2022/04/24 02:20:10;;;;;;;;;;;16.50;60.00;;;;;;2046292;28;19903;-65
2022/04/24 02:21:09;;;;;;;;;;;16.50;60.00;;;;;;2046319;28;19910;-65
2022/04/24 02:22:08;;;;;;;;;;;16.60;60.40;;;;;;2046255;28;19939;-65
2022/04/24 02:23:08;;;;;;;;;;;16.50;60.10;;;;;;2045545;28;19961;-65
2022/04/24 02:24:06;;;;;;;;;;;16.50;60.20;;;;;;2045712;28;19903;-66
2022/04/24 02:25:05;;;;;;;;;;;16.50;60.20;;;;;;2046182;28;20355;-67
2022/04/24 02:26:04;;;;;;;;;;;16.50;60.80;;;;;;2046146;28;19910;-66
2022/04/24 02:27:02;;;;;;;;;;;16.50;60.30;;;;;;2046259;28;19991;-66
2022/04/24 02:28:00;;;;;;;;;;;16.50;60.40;;;;;;2046312;28;19946;-67
2022/04/24 02:28:59;;;;;;;;;;;16.50;60.20;;;;;;2046317;28;19903;-67
2022/04/24 02:29:59;;;;;;;;;;;16.50;60.20;;;;;;2046283;28;19903;-66
2022/04/24 02:30:59;;;;;;;;;;;16.50;61.20;;;;;;2046367;28;19904;-66
2022/04/24 02:31:57;;;;;;;;;;;16.50;62.10;;;;;;2046196;28;19908;-67
2022/04/24 02:32:57;;;;;;;;;;;16.50;61.10;;;;;;2046210;28;19903;-66
2022/04/24 02:33:55;;;;;;;;;;;16.50;60.70;;;;;;2046327;28;20315;-66
2022/04/24 02:34:54;;;;;;;;;;;16.50;60.50;;;;;;2046343;28;19980;-66
2022/04/24 02:35:52;;;;;;;;;;;16.50;60.50;;;;;;2046363;28;19903;-67
2022/04/24 02:36:51;;;;;;;;;;;16.50;60.30;;;;;;2046398;28;20350;-67
2022/04/24 02:37:49;;;;;;;;;;;16.50;60.30;;;;;;2046344;28;20048;-66
2022/04/24 02:38:48;;;;;;;;;;;16.50;60.50;;;;;;2046412;28;19903;-67
2022/04/24 02:39:46;;;;;;;;;;;16.50;60.50;;;;;;2046408;28;19904;-67
2022/04/24 02:40:45;;;;;;;;;;;16.50;60.40;;;;;;2046130;28;19903;-65
2022/04/24 02:41:43;;;;;;;;;;;16.50;60.80;;;;;;2046039;28;19910;-66
2022/04/24 02:42:42;;;;;;;;;;;16.50;60.80;;;;;;2046282;28;19945;-66
2022/04/24 02:43:40;;;;;;;;;;;16.50;60.50;;;;;;2046253;28;20276;-67
2022/04/24 02:44:38;;;;;;;;;;;16.50;60.40;;;;;;2046223;28;19911;-68
2022/04/24 02:45:37;;;;;;;;;;;16.50;60.50;;;;;;2046011;28;19999;-66
2022/04/24 02:46:35;;;;;;;;;;;16.50;60.50;;;;;;2046046;28;20243;-67
2022/04/24 02:47:34;;;;;;;;;;;16.50;60.50;;;;;;2046179;28;19904;-67
2022/04/24 02:48:33;;;;;;;;;;;16.50;60.80;;;;;;2046126;28;20308;-66
2022/04/24 02:49:31;;;;;;;;;;;16.50;60.50;;;;;;2046166;28;19953;-66
2022/04/24 02:50:29;;;;;;;;;;;16.50;60.60;;;;;;2046208;28;19903;-66
2022/04/24 02:51:28;;;;;;;;;;;16.50;60.70;;;;;;2046159;28;20321;-67
2022/04/24 02:52:26;;;;;;;;;;;16.40;61.00;;;;;;2046577;27;19960;-67
2022/04/24 02:53:25;;;;;;;;;;;16.50;61.30;;;;;;2046369;28;19952;-66
2022/04/24 02:54:23;;;;;;;;;;;16.50;61.40;;;;;;2046577;28;19972;-66
2022/04/24 02:55:22;;;;;;;;;;;16.50;61.80;;;;;;2049055;28;19943;-66
2022/04/24 02:56:21;;;;;;;;;;;16.50;61.80;;;;;;2055905;28;19975;-66
2022/04/24 02:57:20;;;;;;;;;;;16.50;61.90;;;;;;2055767;28;19914;-66
2022/04/24 02:58:20;;;;;;;;;;;16.40;62.00;;;;;;2055288;28;19910;-65
2022/04/24 02:59:18;;;;;;;;;;;16.50;62.30;;;;;;2052050;28;19903;-67
2022/04/24 03:00:20;;;;;;;;;;;16.50;61.70;;;;;;2046001;28;19914;-67
2022/04/24 03:01:21;;;;;;;;;;;16.50;64.00;;;;;;2045997;28;19904;-67
2022/04/24 03:02:20;;;;;;;;;;;16.50;62.90;;;;;;2045972;28;19907;-67
2022/04/24 03:03:20;;;;;;;;;;;16.30;63.10;;;;;;2045948;28;19908;-67
2022/04/24 03:04:19;;;;;;;;;;;16.50;68.50;;;;;;2045896;28;19952;-67
2022/04/24 03:05:19;;;;;;;;;;;16.20;62.50;;;;;;2045712;27;19965;-66
2022/04/24 03:06:17;;;;;;;;;;;16.40;67.30;;;;;;2045873;28;19908;-67
2022/04/24 03:07:16;;;;;;;;;;;16.50;64.50;;;;;;2046113;28;20006;-67
2022/04/24 03:08:15;;;;;;;;;;;16.10;62.70;;;;;;2046077;28;20277;-66
2022/04/24 03:09:13;;;;;;;;;;;16.50;64.00;;;;;;2045904;28;19903;-67
2022/04/24 03:10:12;;;;;;;;;;;16.40;63.40;;;;;;2045930;27;19911;-66
2022/04/24 03:11:11;;;;;;;;;;;16.40;64.90;;;;;;2045882;28;19904;-67
2022/04/24 03:12:09;;;;;;;;;;;16.50;63.90;;;;;;2046010;28;19998;-66
2022/04/24 03:13:08;;;;;;;;;;;16.50;66.20;;;;;;2046064;28;19910;-66
2022/04/24 03:14:07;;;;;;;;;;;16.40;64.60;;;;;;2045800;28;19908;-68
2022/04/24 03:15:06;;;;;;;;;;;16.40;63.10;;;;;;2045892;28;20346;-66
2022/04/24 03:16:05;;;;;;;;;;;16.40;64.00;;;;;;2048086;28;19903;-67
2022/04/24 03:17:03;;;;;;;;;;;16.40;64.00;;;;;;2054361;28;19928;-66
2022/04/24 03:18:02;;;;;;;;;;;16.50;66.80;;;;;;2053987;28;19914;-66
2022/04/24 03:19:00;;;;;;;;;;;16.40;64.30;;;;;;2052976;28;19904;-67
2022/04/24 03:19:59;;;;;;;;;;;16.40;72.90;;;;;;2051368;28;19994;-66
2022/04/24 03:20:58;;;;;;;;;;;16.40;65.80;;;;;;2051676;28;19915;-66
2022/04/24 03:21:56;;;;;;;;;;;16.40;68.90;;;;;;2048591;28;20014;-66
2022/04/24 03:22:55;;;;;;;;;;;16.40;64.20;;;;;;2048092;28;19913;-65
2022/04/24 03:23:53;;;;;;;;;;;16.40;64.20;;;;;;2052106;28;20367;-66
2022/04/24 03:24:52;;;;;;;;;;;16.40;64.90;;;;;;2046889;28;20004;-66
2022/04/24 03:25:50;;;;;;;;;;;16.30;63.60;;;;;;2046570;28;20078;-68
2022/04/24 03:26:49;;;;;;;;;;;16.40;64.00;;;;;;2046580;28;19939;-66
2022/04/24 03:27:47;;;;;;;;;;;16.40;66.40;;;;;;2045652;28;19935;-67
2022/04/24 03:28:46;;;;;;;;;;;16.40;64.20;;;;;;2045211;28;19904;-67
2022/04/24 03:29:45;;;;;;;;;;;16.40;64.10;;;;;;2045644;28;19910;-67
2022/04/24 03:30:43;;;;;;;;;;;16.40;65.60;;;;;;2045279;28;19955;-68
2022/04/24 03:31:42;;;;;;;;;;;16.30;67.30;;;;;;2045357;28;19910;-66
2022/04/24 03:32:40;;;;;;;;;;;16.40;64.70;;;;;;2045977;28;19908;-66
2022/04/24 03:33:39;;;;;;;;;;;16.40;64.70;;;;;;2045696;28;19948;-66
2022/04/24 03:34:37;;;;;;;;;;;16.40;63.30;;;;;;2045657;27;19908;-66
2022/04/24 03:35:36;;;;;;;;;;;16.30;61.90;;;;;;2045876;28;19903;-66
2022/04/24 03:36:34;;;;;;;;;;;16.40;61.10;;;;;;2044948;28;20331;-65
2022/04/24 03:37:32;;;;;;;;;;;16.40;60.90;;;;;;2045043;28;19904;-66
2022/04/24 03:38:32;;;;;;;;;;;16.40;60.90;;;;;;2045719;28;20350;-66
2022/04/24 03:39:31;;;;;;;;;;;16.40;60.90;;;;;;2045595;28;19910;-66
2022/04/24 03:40:29;;;;;;;;;;;16.40;60.80;;;;;;2045719;28;19903;-66
2022/04/24 03:41:27;;;;;;;;;;;16.40;60.70;;;;;;2045546;28;19911;-66
2022/04/24 03:42:26;;;;;;;;;;;16.40;60.70;;;;;;2045766;28;19903;-66
2022/04/24 03:43:24;;;;;;;;;;;16.40;60.60;;;;;;2045627;28;20323;-66
2022/04/24 03:44:23;;;;;;;;;;;16.40;60.50;;;;;;2045722;28;19950;-67
2022/04/24 03:45:21;;;;;;;;;;;16.40;60.60;;;;;;2045479;28;20367;-65
2022/04/24 03:46:20;;;;;;;;;;;16.40;60.60;;;;;;2045514;27;19907;-66
2022/04/24 03:47:19;;;;;;;;;;;16.40;60.70;;;;;;2045611;28;19904;-67
2022/04/24 03:48:18;;;;;;;;;;;16.40;60.50;;;;;;2045563;28;20385;-66
2022/04/24 03:49:16;;;;;;;;;;;16.40;60.50;;;;;;2045699;28;19971;-67
2022/04/24 03:50:14;;;;;;;;;;;16.40;60.60;;;;;;2045469;28;19904;-66
2022/04/24 03:51:13;;;;;;;;;;;16.40;60.70;;;;;;2045649;28;19947;-66
2022/04/24 03:52:11;;;;;;;;;;;16.40;60.50;;;;;;2045675;27;19910;-66
2022/04/24 03:53:10;;;;;;;;;;;16.40;60.50;;;;;;2045613;28;19903;-66
2022/04/24 03:54:08;;;;;;;;;;;16.40;60.50;;;;;;2045512;28;19931;-66
2022/04/24 03:55:07;;;;;;;;;;;16.40;60.70;;;;;;2045379;28;19907;-67
2022/04/24 03:56:07;;;;;;;;;;;16.30;60.60;;;;;;2045519;27;20224;-66
2022/04/24 03:57:06;;;;;;;;;;;16.40;60.50;;;;;;2045370;28;19904;-67
2022/04/24 03:58:04;;;;;;;;;;;16.40;60.60;;;;;;2045564;28;19904;-67
2022/04/24 03:59:03;;;;;;;;;;;16.30;60.50;;;;;;2045570;28;19910;-67
2022/04/24 04:00:02;;;;;;;;;;;16.30;60.60;;;;;;2045531;28;19973;-67
2022/04/24 04:01:01;;;;;;;;;;;16.40;60.60;;;;;;2045579;28;19946;-66
2022/04/24 04:01:59;;;;;;;;;;;16.40;60.60;;;;;;2045473;28;20270;-66
2022/04/24 04:02:57;;;;;;;;;;;16.30;60.50;;;;;;2045474;28;19904;-66
2022/04/24 04:03:57;;;;;;;;;;;16.30;60.50;;;;;;2045513;28;19904;-65
2022/04/24 04:04:56;;;;;;;;;;;16.30;60.40;;;;;;2045232;28;19907;-66
2022/04/24 04:05:54;;;;;;;;;;;16.30;60.40;;;;;;2045434;28;20026;-66
2022/04/24 04:06:53;;;;;;;;;;;16.30;60.40;;;;;;2045432;28;20407;-66
2022/04/24 04:07:51;;;;;;;;;;;16.30;60.40;;;;;;2045471;27;20282;-66
2022/04/24 04:08:50;;;;;;;;;;;16.30;60.40;;;;;;2045473;28;19912;-66
2022/04/24 04:09:48;;;;;;;;;;;16.30;60.60;;;;;;2044913;27;19908;-65
2022/04/24 04:10:47;;;;;;;;;;;16.30;60.60;;;;;;2045296;28;20386;-66
2022/04/24 04:11:45;;;;;;;;;;;16.30;60.70;;;;;;2044838;28;19904;-65
2022/04/24 04:12:44;;;;;;;;;;;16.30;60.70;;;;;;2044920;28;19995;-65
2022/04/24 04:13:42;;;;;;;;;;;16.30;60.70;;;;;;2044625;28;20253;-66
2022/04/24 04:14:41;;;;;;;;;;;16.30;60.70;;;;;;2044866;28;19903;-66
2022/04/24 04:15:39;;;;;;;;;;;16.30;60.60;;;;;;2045320;28;19905;-65
2022/04/24 04:16:37;;;;;;;;;;;16.30;60.70;;;;;;2044799;28;19908;-65
2022/04/24 04:17:36;;;;;;;;;;;16.30;60.70;;;;;;2044742;28;19903;-66
2022/04/24 04:18:34;;;;;;;;;;;16.30;60.80;;;;;;2045247;28;20268;-66
2022/04/24 04:19:33;;;;;;;;;;;16.30;60.70;;;;;;2045378;28;19943;-66
2022/04/24 04:20:31;;;;;;;;;;;16.30;60.70;;;;;;2045438;28;20343;-66
2022/04/24 04:21:30;;;;;;;;;;;16.30;60.80;;;;;;2045356;28;19904;-66
2022/04/24 04:22:28;;;;;;;;;;;16.30;60.80;;;;;;2045350;28;20259;-66
2022/04/24 04:23:27;;;;;;;;;;;16.30;60.70;;;;;;2045375;28;19908;-66
2022/04/24 04:24:25;;;;;;;;;;;16.30;60.70;;;;;;2045331;27;20013;-66
2022/04/24 04:25:24;;;;;;;;;;;16.30;60.70;;;;;;2045234;28;19915;-66
2022/04/24 04:26:22;;;;;;;;;;;16.30;60.90;;;;;;2045206;28;19939;-66
2022/04/24 04:27:21;;;;;;;;;;;16.30;60.80;;;;;;2045200;28;20363;-65
2022/04/24 04:28:20;;;;;;;;;;;16.30;60.80;;;;;;2045290;28;19939;-66
2022/04/24 04:29:18;;;;;;;;;;;16.30;60.80;;;;;;2045340;28;19950;-65
2022/04/24 04:30:17;;;;;;;;;;;16.20;60.70;;;;;;2045207;28;19907;-65
2022/04/24 04:31:15;;;;;;;;;;;16.20;60.70;;;;;;2045293;28;20263;-65
2022/04/24 04:32:14;;;;;;;;;;;16.30;60.90;;;;;;2045311;28;19993;-66
2022/04/24 04:33:12;;;;;;;;;;;16.30;60.80;;;;;;2045183;28;19904;-67
2022/04/24 04:34:10;;;;;;;;;;;16.30;60.90;;;;;;2045339;28;19907;-65
2022/04/24 04:35:12;;;;;;;;;;;16.30;61.00;;;;;;2045232;28;20362;-66
2022/04/24 04:36:11;;;;;;;;;;;16.30;61.20;;;;;;2045240;28;19910;-65
2022/04/24 04:37:09;;;;;;;;;;;16.30;61.20;;;;;;2045042;28;20266;-65
2022/04/24 04:38:08;;;;;;;;;;;16.30;61.00;;;;;;2045470;28;20036;-66
2022/04/24 04:39:06;;;;;;;;;;;16.30;61.00;;;;;;2045125;28;20309;-66
2022/04/24 04:40:06;;;;;;;;;;;16.20;61.00;;;;;;2045188;28;19911;-65
2022/04/24 04:41:04;;;;;;;;;;;16.20;60.90;;;;;;2045176;28;19904;-66
2022/04/24 04:42:03;;;;;;;;;;;16.20;61.10;;;;;;2045406;27;19904;-66
2022/04/24 04:43:01;;;;;;;;;;;16.20;61.10;;;;;;2045099;28;19904;-66
2022/04/24 04:44:00;;;;;;;;;;;16.30;61.20;;;;;;2045150;28;19947;-65
2022/04/24 04:45:00;;;;;;;;;;;16.30;59.70;;;;;;2045216;28;20331;-67
2022/04/24 04:45:59;;;;;;;;;;;16.30;59.70;;;;;;2045348;28;19926;-65
2022/04/24 04:46:57;;;;;;;;;;;16.30;59.70;;;;;;2045233;28;19908;-66
2022/04/24 04:47:55;;;;;;;;;;;16.20;59.60;;;;;;2045261;28;20347;-66
2022/04/24 04:48:54;;;;;;;;;;;16.20;59.60;;;;;;2045227;28;19934;-67
2022/04/24 04:49:52;;;;;;;;;;;16.30;59.90;;;;;;2045122;28;19904;-66
2022/04/24 04:50:51;;;;;;;;;;;16.20;59.70;;;;;;2045333;28;19926;-66
2022/04/24 04:51:50;;;;;;;;;;;16.20;59.70;;;;;;2045380;28;19973;-67
2022/04/24 04:52:48;;;;;;;;;;;16.30;59.80;;;;;;2045177;28;20377;-66
2022/04/24 04:53:47;;;;;;;;;;;16.30;59.70;;;;;;2045019;28;19956;-66
2022/04/24 04:54:45;;;;;;;;;;;16.30;59.70;;;;;;2045158;28;19946;-66
2022/04/24 04:55:44;;;;;;;;;;;16.30;60.00;;;;;;2045282;28;19904;-67
2022/04/24 04:56:42;;;;;;;;;;;16.30;59.70;;;;;;2045056;28;20278;-67
2022/04/24 04:57:41;;;;;;;;;;;16.30;59.80;;;;;;2045208;28;19904;-66
2022/04/24 04:58:40;;;;;;;;;;;16.30;59.80;;;;;;2044977;28;19904;-66
2022/04/24 04:59:38;;;;;;;;;;;16.30;59.80;;;;;;2044912;28;19991;-66
2022/04/24 05:00:37;;;;;;;;;;;16.30;59.70;;;;;;2045088;28;20355;-66
2022/04/24 05:01:35;;;;;;;;;;;16.30;59.80;;;;;;2045253;28;19946;-66
2022/04/24 05:02:38;;;;;;;;;;;16.30;59.70;;;;;;2045100;28;19907;-66
2022/04/24 05:03:36;;;;;;;;;;;16.30;59.80;;;;;;2045019;28;19903;-67
2022/04/24 05:04:35;;;;;;;;;;;16.30;59.80;;;;;;2045034;28;19953;-67
2022/04/24 05:05:33;;;;;;;;;;;16.30;59.80;;;;;;2045216;28;19911;-67
2022/04/24 05:06:32;;;;;;;;;;;16.30;59.80;;;;;;2045051;28;19935;-65
2022/04/24 05:07:30;;;;;;;;;;;16.30;59.90;;;;;;2045133;28;19984;-65
2022/04/24 05:08:29;;;;;;;;;;;16.30;59.90;;;;;;2045104;28;20289;-65
2022/04/24 05:09:27;;;;;;;;;;;16.30;59.90;;;;;;2045036;28;20292;-66
2022/04/24 05:10:26;;;;;;;;;;;16.30;59.80;;;;;;2045110;28;19908;-65
2022/04/24 05:11:24;;;;;;;;;;;16.30;59.80;;;;;;2045078;28;19910;-66
2022/04/24 05:12:26;;;;;;;;;;;16.30;59.70;;;;;;2045134;28;19904;-66
2022/04/24 05:13:25;;;;;;;;;;;16.30;59.90;;;;;;2045131;28;20421;-66
2022/04/24 05:14:24;;;;;;;;;;;16.30;59.70;;;;;;2045105;28;19904;-66
2022/04/24 05:15:22;;;;;;;;;;;16.30;59.70;;;;;;2045196;28;20022;-66
2022/04/24 05:16:21;;;;;;;;;;;16.30;59.80;;;;;;2044913;28;19904;-66
2022/04/24 05:17:19;;;;;;;;;;;16.30;59.80;;;;;;2045095;28;19950;-66
2022/04/24 05:18:19;;;;;;;;;;;16.30;59.80;;;;;;2044982;28;19951;-67
2022/04/24 05:19:17;;;;;;;;;;;16.30;59.80;;;;;;2045244;28;20385;-66
2022/04/24 05:20:16;;;;;;;;;;;16.30;59.70;;;;;;2045012;28;19904;-67
2022/04/24 05:21:17;;;;;;;;;;;16.30;59.70;;;;;;2045403;28;19904;-67
2022/04/24 05:22:15;;;;;;;;;;;16.30;59.70;;;;;;2046709;28;20303;-66
2022/04/24 05:23:13;;;;;;;;;;;16.30;59.60;;;;;;2046681;28;19911;-66
2022/04/24 05:24:12;;;;;;;;;;;16.30;59.60;;;;;;2046889;28;19950;-66
2022/04/24 05:25:12;;;;;;;;;;;16.30;59.60;;;;;;2046606;28;19918;-66
2022/04/24 05:26:11;;;;;;;;;;;16.30;59.70;;;;;;2046713;28;19992;-66
2022/04/24 05:27:09;;;;;;;;;;;16.30;59.70;;;;;;2046644;28;19954;-66
2022/04/24 05:28:07;;;;;;;;;;;16.30;59.60;;;;;;2046737;28;20401;-66
2022/04/24 05:29:07;;;;;;;;;;;16.30;59.60;;;;;;2046637;28;19919;-66
2022/04/24 05:30:07;;;;;;;;;;;16.30;59.60;;;;;;2046726;28;19911;-67
2022/04/24 05:31:05;;;;;;;;;;;16.30;59.70;;;;;;2046752;28;19910;-65
2022/04/24 05:32:04;;;;;;;;;;;16.30;59.60;;;;;;2046726;28;19910;-66
2022/04/24 05:33:04;;;;;;;;;;;16.30;59.70;;;;;;2046709;28;20317;-65
2022/04/24 05:34:02;;;;;;;;;;;16.30;59.60;;;;;;2046720;28;19903;-66
2022/04/24 05:35:01;;;;;;;;;;;16.30;59.70;;;;;;2046764;27;19929;-66
2022/04/24 05:35:59;;;;;;;;;;;16.30;59.60;;;;;;2046627;28;19904;-66
2022/04/24 05:36:58;;;;;;;;;;;16.30;59.70;;;;;;2046832;28;20011;-66
2022/04/24 05:37:56;;;;;;;;;;;16.30;59.70;;;;;;2046716;28;19904;-66
2022/04/24 05:38:55;;;;;;;;;;;16.30;59.60;;;;;;2046877;28;19904;-66
2022/04/24 05:39:53;;;;;;;;;;;16.30;59.60;;;;;;2046691;28;20259;-66
2022/04/24 05:40:51;;;;;;;;;;;16.30;59.60;;;;;;2046898;27;19947;-66
2022/04/24 05:41:50;;;;;;;;;;;16.30;59.60;;;;;;2046758;28;19903;-66